Time;durP1;ratioP1;P1;durP2;ratioP2;P2;SDS_P1;SDS_P2;PMS_P1;PMS_P2;Temp;Humidity;BMP_temperature;BMP_pressure;BME280_temperature;BME280_humidity;BME280_pressure;Samples;Min_cycle;Max_cycle;Signal;HPM_P1;HPM_P2
2020/12/19 00:35:15;;;;;;;11.30;8.73;;;8.80;99.90;;;;;;5075224;23;20230;-81
2020/12/19 01:01:14;;;;;;;10.37;8.77;;;8.70;99.90;;;;;;4998098;28;20193;-82
2020/12/19 01:04:01;;;;;;;11.37;9.53;;;8.70;99.90;;;;;;5010176;23;20243;-82
2020/12/19 01:25:15;;;;;;;12.00;9.37;;;8.60;99.90;;;;;;5016782;23;20289;-80
2020/12/19 01:28:21;;;;;;;11.30;8.60;;;8.50;99.90;;;;;;5008516;23;20232;-80
2020/12/19 01:51:08;;;;;;;10.13;8.87;;;8.50;99.90;;;;;;5024831;23;20209;-80
2020/12/19 01:54:16;;;;;;;9.60;8.17;;;8.60;99.90;;;;;;5004028;23;20237;-82
2020/12/19 02:00:16;;;;;;;10.30;8.57;;;8.50;99.90;;;;;;5023376;23;20236;-81
2020/12/19 02:03:23;;;;;;;10.07;8.70;;;8.40;99.90;;;;;;5042930;23;20247;-80
2020/12/19 02:09:02;;;;;;;9.83;8.10;;;8.50;99.90;;;;;;5402641;23;20264;-84
2020/12/19 02:12:30;;;;;;;10.97;8.33;;;8.50;99.90;;;;;;4982185;28;20197;-82
2020/12/19 02:18:51;;;;;;;9.73;8.40;;;8.30;99.90;;;;;;5103840;23;20229;-83
2020/12/19 02:21:28;;;;;;;10.77;9.07;;;8.30;99.90;;;;;;5039564;23;20251;-80
2020/12/19 02:24:06;;;;;;;9.00;7.87;;;8.30;99.90;;;;;;5001899;28;20181;-84
2020/12/19 02:26:36;;;;;;;13.83;8.87;;;8.30;99.90;;;;;;5008192;23;20216;-80
2020/12/19 02:35:31;;;;;;;9.70;7.90;;;8.30;99.90;;;;;;4981601;28;20216;-83
2020/12/19 02:38:42;;;;;;;9.67;7.90;;;8.30;99.90;;;;;;5011229;23;20218;-81
2020/12/19 02:45:04;;;;;;;10.20;7.60;;;8.40;99.90;;;;;;5015894;23;20292;-83
2020/12/19 02:48:10;;;;;;;9.30;7.77;;;8.40;99.90;;;;;;5208956;23;20191;-79
2020/12/19 02:57:09;;;;;;;8.03;7.10;;;8.50;99.90;;;;;;5019908;23;20221;-84
2020/12/19 03:00:06;;;;;;;8.00;6.77;;;8.50;99.90;;;;;;5001776;28;20212;-84
2020/12/19 03:08:56;;;;;;;7.43;6.33;;;8.50;99.90;;;;;;5151932;23;20230;-81
2020/12/19 03:17:43;;;;;;;7.03;6.33;;;8.40;99.90;;;;;;5113460;23;20233;-81
2020/12/19 03:20:13;;;;;;;8.57;6.90;;;8.40;99.90;;;;;;5407951;23;20332;-86
2020/12/19 03:38:26;;;;;;;7.27;6.57;;;8.60;99.90;;;;;;5092419;23;20256;-81
2020/12/19 03:41:23;;;;;;;7.53;6.37;;;8.60;99.90;;;;;;5023538;23;20229;-82
2020/12/19 03:47:33;;;;;;;6.47;5.87;;;8.60;99.90;;;;;;5236188;23;20233;-81
2020/12/19 03:50:31;;;;;;;8.83;6.33;;;8.60;99.90;;;;;;5000597;28;20177;-81
2020/12/19 03:53:14;;;;;;;7.37;6.50;;;8.60;99.90;;;;;;5000732;28;20228;-81
2020/12/19 05:10:31;;;;;;;17.33;12.10;;;9.10;99.90;;;;;;5771965;23;20199;-80
2020/12/19 05:20:02;;;;;;;17.30;12.83;;;9.20;99.90;;;;;;4982549;28;20221;-83
2020/12/19 05:35:19;;;;;;;17.83;13.50;;;9.00;99.90;;;;;;4997147;28;20240;-82
2020/12/19 05:38:27;;;;;;;21.90;14.50;;;9.20;99.90;;;;;;5002868;28;20199;-83
2020/12/19 05:41:24;;;;;;;21.00;13.60;;;9.20;99.90;;;;;;5002416;28;20283;-83
2020/12/19 05:47:07;;;;;;;19.60;14.43;;;9.20;99.90;;;;;;5007108;23;20229;-81
2020/12/19 05:52:55;;;;;;;18.33;13.47;;;9.20;99.90;;;;;;5022988;23;20233;-81
2020/12/19 06:16:30;;;;;;;17.07;12.17;;;9.60;99.90;;;;;;5172686;23;20232;-83
2020/12/19 06:28:30;;;;;;;14.77;11.63;;;9.80;99.90;;;;;;5030403;23;20244;-83
2020/12/19 06:31:31;;;;;;;13.10;11.60;;;9.90;99.90;;;;;;5016532;23;20209;-82
2020/12/19 06:40:49;;;;;;;14.87;9.90;;;9.90;99.90;;;;;;4970479;28;20234;-95
2020/12/19 06:43:15;;;;;;;15.87;10.63;;;9.80;99.90;;;;;;4952242;29;20293;-92
2020/12/19 06:45:42;;;;;;;12.70;10.27;;;9.70;99.90;;;;;;4957660;29;20198;-94
2020/12/19 06:48:53;;;;;;;15.27;10.80;;;9.60;99.90;;;;;;4965214;28;20212;-94
2020/12/19 06:51:20;;;;;;;13.23;10.20;;;9.60;99.90;;;;;;4956476;29;20209;-94
2020/12/19 06:53:54;;;;;;;13.23;9.90;;;9.60;99.90;;;;;;4957614;29;20248;-95
2020/12/19 06:56:28;;;;;;;11.63;9.10;;;9.60;99.90;;;;;;4958091;29;20541;-95
2020/12/19 07:07:37;;;;;;;9.13;8.10;;;10.00;99.90;;;;;;4976904;28;20283;-96
2020/12/19 07:10:03;;;;;;;10.63;8.10;;;10.00;99.90;;;;;;4977200;28;20649;-95
2020/12/19 07:12:35;;;;;;;12.00;8.70;;;10.00;99.90;;;;;;4982764;28;20657;-94
2020/12/19 07:15:04;;;;;;;11.67;8.13;;;10.10;99.90;;;;;;4977276;28;20247;-95
2020/12/19 07:17:43;;;;;;;10.17;8.10;;;10.10;99.90;;;;;;4959882;28;20232;-95
2020/12/19 07:20:10;;;;;;;9.20;7.60;;;10.20;99.90;;;;;;4977173;28;20236;-96
2020/12/19 15:49:33;;;;;;;2.97;2.70;;;11.60;99.90;;;;;;2367237;23;20718;-88
2020/12/19 15:52:01;;;;;;;6.17;2.70;;;11.50;99.90;;;;;;4955530;28;20218;-91
2020/12/19 15:54:27;;;;;;;3.67;3.00;;;11.50;99.90;;;;;;4957214;28;20209;-92
2020/12/19 15:56:53;;;;;;;5.33;3.00;;;11.50;99.90;;;;;;4956716;29;20237;-93
2020/12/19 15:59:20;;;;;;;4.23;2.97;;;11.20;99.90;;;;;;4956744;28;20654;-92
2020/12/19 16:01:48;;;;;;;3.90;2.80;;;11.20;99.90;;;;;;4956949;29;20211;-92
2020/12/19 16:04:14;;;;;;;3.23;2.90;;;11.20;99.90;;;;;;4956873;28;20261;-92
2020/12/19 16:06:42;;;;;;;6.60;3.53;;;11.10;99.90;;;;;;4956320;29;20236;-92
2020/12/19 16:09:08;;;;;;;6.40;3.27;;;11.10;99.90;;;;;;4956330;28;20216;-93
2020/12/19 16:11:34;;;;;;;5.27;3.30;;;11.20;99.90;;;;;;4939119;29;20688;-92
2020/12/19 16:14:02;;;;;;;6.87;3.00;;;11.00;99.90;;;;;;4957184;29;20218;-92
2020/12/19 16:16:29;;;;;;;4.67;3.10;;;11.00;99.90;;;;;;4956649;28;20289;-93
2020/12/19 16:18:55;;;;;;;6.10;3.17;;;10.90;99.90;;;;;;4956610;28;20214;-92
2020/12/19 16:21:23;;;;;;;4.87;3.60;;;10.90;99.90;;;;;;4956866;29;20230;-93
2020/12/19 16:23:50;;;;;;;3.20;2.83;;;10.90;99.90;;;;;;4957009;29;20214;-92
2020/12/19 16:26:17;;;;;;;4.23;3.20;;;10.90;99.90;;;;;;4956405;28;20232;-92
2020/12/19 16:28:45;;;;;;;5.93;3.40;;;10.90;99.90;;;;;;4956402;28;20209;-93
2020/12/19 16:31:11;;;;;;;5.90;3.27;;;10.80;99.90;;;;;;4956653;29;20213;-92
2020/12/19 16:33:37;;;;;;;7.47;3.60;;;10.80;99.90;;;;;;4956335;29;20221;-92
2020/12/19 16:36:04;;;;;;;5.57;3.33;;;10.90;99.90;;;;;;4955781;29;20592;-90
2020/12/19 16:38:30;;;;;;;3.80;3.37;;;10.80;99.90;;;;;;4956139;28;20247;-92
2020/12/19 16:40:58;;;;;;;6.90;3.30;;;10.80;99.90;;;;;;4956777;28;20229;-90
2020/12/19 16:48:53;;;;;;;5.13;3.33;;;10.80;99.90;;;;;;5010218;23;20629;-89
2020/12/19 16:54:11;;;;;;;4.13;3.40;;;10.80;99.90;;;;;;5005022;23;20660;-91
2020/12/19 16:56:38;;;;;;;6.00;3.40;;;10.90;99.90;;;;;;4978895;28;20236;-90
2020/12/19 16:59:05;;;;;;;7.87;4.07;;;10.80;99.90;;;;;;4978952;28;20220;-91
2020/12/19 17:01:38;;;;;;;9.00;4.70;;;10.70;99.90;;;;;;4979074;28;20331;-90
2020/12/19 17:04:05;;;;;;;5.27;3.60;;;10.80;99.90;;;;;;4979029;28;20208;-92
2020/12/19 17:06:31;;;;;;;7.03;4.27;;;10.70;99.90;;;;;;4978702;28;20236;-90
2020/12/19 17:08:58;;;;;;;7.25;4.03;;;10.70;99.90;;;;;;4978784;28;20448;-91
2020/12/19 17:11:25;;;;;;;8.27;3.80;;;10.70;99.90;;;;;;4978882;28;20280;-92
2020/12/19 17:13:54;;;;;;;7.73;3.70;;;10.60;99.90;;;;;;4978799;28;20258;-93
2020/12/19 17:16:21;;;;;;;9.30;3.83;;;10.70;99.90;;;;;;4961448;28;20232;-91
2020/12/19 17:18:49;;;;;;;7.07;3.53;;;10.70;99.90;;;;;;4961356;28;20268;-90
2020/12/19 17:21:23;;;;;;;6.77;3.50;;;10.70;99.90;;;;;;4978784;28;20225;-91
2020/12/19 17:23:49;;;;;;;6.90;3.97;;;10.60;99.90;;;;;;4961505;28;20279;-91
2020/12/19 17:26:16;;;;;;;5.37;3.47;;;10.70;99.90;;;;;;4978644;28;20248;-92
2020/12/19 17:28:44;;;;;;;5.63;3.50;;;10.70;99.90;;;;;;4978303;28;20236;-90
2020/12/19 17:31:11;;;;;;;3.57;3.20;;;10.70;99.90;;;;;;4978474;28;20224;-91
2020/12/19 17:33:38;;;;;;;6.00;3.73;;;10.60;99.90;;;;;;4978233;28;20209;-91
2020/12/19 17:36:04;;;;;;;7.47;3.90;;;10.60;99.90;;;;;;4961464;28;20237;-93
2020/12/19 17:38:31;;;;;;;5.07;3.60;;;10.50;99.90;;;;;;4978403;28;20205;-90
2020/12/19 17:40:57;;;;;;;6.77;4.37;;;10.50;99.90;;;;;;4978312;28;20685;-92
2020/12/19 17:43:23;;;;;;;7.63;4.97;;;10.50;99.90;;;;;;4978446;28;20204;-93
2020/12/19 17:45:50;;;;;;;10.27;3.57;;;10.60;99.90;;;;;;4979002;28;20217;-94
2020/12/19 17:48:17;;;;;;;5.63;3.60;;;10.50;99.90;;;;;;4978585;28;20205;-92
2020/12/19 17:50:43;;;;;;;14.13;4.20;;;10.50;99.90;;;;;;4978465;28;20193;-92
2020/12/19 17:53:10;;;;;;;6.87;3.70;;;10.70;99.90;;;;;;4978242;28;20240;-91
2020/12/19 17:55:36;;;;;;;6.30;3.67;;;10.70;99.90;;;;;;4978461;28;20200;-92
2020/12/19 17:58:03;;;;;;;7.47;3.57;;;10.80;99.90;;;;;;4978086;28;20261;-92
2020/12/19 18:00:30;;;;;;;7.95;4.50;;;10.80;99.90;;;;;;4977276;28;20451;-91
2020/12/19 18:02:56;;;;;;;6.90;3.80;;;10.80;99.90;;;;;;4977370;28;20296;-91
2020/12/19 18:05:23;;;;;;;6.43;3.40;;;10.80;99.90;;;;;;4977806;28;20606;-92
2020/12/19 18:07:50;;;;;;;8.53;3.63;;;10.70;99.90;;;;;;4977684;28;20689;-92
2020/12/19 18:10:16;;;;;;;7.87;3.70;;;10.60;99.90;;;;;;4977938;28;20259;-92
2020/12/19 18:12:43;;;;;;;6.27;4.13;;;10.60;99.90;;;;;;4977770;28;20205;-90
2020/12/19 18:15:09;;;;;;;6.73;4.37;;;10.50;99.90;;;;;;4978065;28;20202;-91
2020/12/19 18:17:36;;;;;;;6.70;4.13;;;10.40;99.90;;;;;;4978179;28;20229;-92
2020/12/19 18:20:02;;;;;;;10.67;4.33;;;10.50;99.90;;;;;;4977696;28;20268;-90
2020/12/19 18:22:29;;;;;;;8.90;4.53;;;10.40;99.90;;;;;;4977727;28;20649;-92
2020/12/19 18:24:56;;;;;;;9.30;4.67;;;10.40;99.90;;;;;;4977624;28;20194;-91
2020/12/19 18:27:22;;;;;;;9.20;4.60;;;10.30;99.90;;;;;;4977493;28;20316;-90
2020/12/19 18:29:48;;;;;;;5.70;4.47;;;10.30;99.90;;;;;;4977801;28;20213;-93
2020/12/19 18:32:15;;;;;;;10.17;4.77;;;10.30;99.90;;;;;;4978133;28;20209;-91
2020/12/19 18:34:41;;;;;;;11.17;5.20;;;10.30;99.90;;;;;;4977184;28;20276;-92
2020/12/19 18:37:07;;;;;;;10.63;4.23;;;10.30;99.90;;;;;;4977134;28;20236;-92
2020/12/19 18:39:35;;;;;;;10.47;4.70;;;10.20;99.90;;;;;;4977426;28;20216;-91
2020/12/19 18:42:01;;;;;;;7.97;5.00;;;10.20;99.90;;;;;;4979154;28;20209;-90
2020/12/19 18:44:27;;;;;;;6.93;4.60;;;10.30;99.90;;;;;;4977286;28;20240;-92
2020/12/19 18:46:54;;;;;;;6.23;4.87;;;10.30;99.90;;;;;;4960351;28;20225;-91
2020/12/19 18:49:20;;;;;;;5.90;4.70;;;10.20;99.90;;;;;;4977110;28;20212;-92
2020/12/19 18:51:46;;;;;;;8.57;5.03;;;10.20;99.90;;;;;;4980313;28;20274;-90
2020/12/19 18:54:13;;;;;;;10.07;5.10;;;10.10;99.90;;;;;;4978361;28;20237;-89
2020/12/19 18:56:40;;;;;;;7.93;4.90;;;10.20;99.90;;;;;;4977308;28;20297;-90
2020/12/19 18:59:07;;;;;;;11.10;5.07;;;10.20;99.90;;;;;;4979875;28;20209;-89
2020/12/19 19:12:10;;;;;;;7.03;5.00;;;10.10;99.90;;;;;;4958057;29;20677;-88
2020/12/19 19:17:21;;;;;;;9.70;5.20;;;10.10;99.90;;;;;;5007893;23;20260;-89
2020/12/19 19:19:47;;;;;;;7.67;4.47;;;10.10;99.90;;;;;;4958872;28;20595;-90
2020/12/19 19:22:14;;;;;;;12.17;4.60;;;10.10;99.90;;;;;;4976769;28;20209;-92
2020/12/19 19:24:40;;;;;;;10.70;4.87;;;10.00;99.90;;;;;;4977215;28;20608;-88
2020/12/19 19:27:06;;;;;;;9.27;4.97;;;10.10;99.90;;;;;;4977109;28;20233;-90
2020/12/19 19:29:36;;;;;;;10.13;5.27;;;10.10;99.90;;;;;;4978631;28;20275;-91
2020/12/19 19:32:04;;;;;;;7.23;5.33;;;10.10;99.90;;;;;;4977614;28;20541;-90
2020/12/19 19:34:33;;;;;;;8.23;5.20;;;10.10;99.90;;;;;;4975953;28;20315;-92
2020/12/19 19:36:59;;;;;;;10.63;4.70;;;10.00;99.90;;;;;;4958965;28;20240;-91
2020/12/19 19:42:10;;;;;;;10.03;5.27;;;10.10;99.90;;;;;;5085189;23;20333;-91
2020/12/19 19:44:39;;;;;;;9.70;5.00;;;10.10;99.90;;;;;;4957015;29;20205;-92
2020/12/19 19:47:06;;;;;;;12.87;5.23;;;10.00;99.90;;;;;;4957042;28;20329;-93
2020/12/19 19:49:32;;;;;;;10.37;5.20;;;10.00;99.90;;;;;;4956045;29;20253;-92
2020/12/19 19:57:28;;;;;;;11.90;5.10;;;10.00;99.90;;;;;;5019600;23;20619;-92
2020/12/19 20:02:30;;;;;;;9.57;5.10;;;9.90;99.90;;;;;;5088276;23;20255;-89
2020/12/19 20:04:57;;;;;;;11.20;5.95;;;9.90;99.90;;;;;;4982713;28;20441;-91
2020/12/19 20:07:23;;;;;;;10.00;5.70;;;10.10;99.90;;;;;;4994825;28;20692;-91
2020/12/19 20:09:50;;;;;;;12.87;6.23;;;9.90;99.90;;;;;;4995024;28;20220;-92
2020/12/19 20:12:18;;;;;;;9.77;5.70;;;9.90;99.90;;;;;;4995333;28;20334;-90
2020/12/19 20:14:44;;;;;;;14.43;5.83;;;9.90;99.90;;;;;;4995301;28;20213;-92
2020/12/19 20:17:10;;;;;;;10.70;6.37;;;9.90;99.90;;;;;;4994870;28;20380;-91
2020/12/19 20:25:08;;;;;;;10.90;6.50;;;10.00;99.90;;;;;;5078277;23;20244;-90
2020/12/19 20:27:37;;;;;;;15.00;6.00;;;9.90;99.90;;;;;;4981848;28;20225;-89
2020/12/19 20:30:04;;;;;;;18.60;6.70;;;9.70;99.90;;;;;;4975658;28;20748;-91
2020/12/19 20:32:30;;;;;;;13.37;6.37;;;9.70;99.90;;;;;;4975158;28;20284;-91
2020/12/19 20:34:56;;;;;;;11.57;5.93;;;9.70;99.90;;;;;;4975159;28;20225;-91
2020/12/19 20:37:23;;;;;;;12.57;5.47;;;9.70;99.90;;;;;;4975353;28;20229;-91
2020/12/19 20:39:49;;;;;;;9.37;5.57;;;9.80;99.90;;;;;;4975590;28;20205;-91
2020/12/19 20:45:13;;;;;;;12.07;5.33;;;9.90;99.90;;;;;;5051437;23;20244;-91
2020/12/19 20:47:39;;;;;;;12.43;5.10;;;9.90;99.90;;;;;;4975161;28;20220;-88
2020/12/19 20:50:07;;;;;;;7.53;4.80;;;9.90;99.90;;;;;;4976384;28;20634;-89
2020/12/19 20:52:34;;;;;;;11.90;5.00;;;9.90;99.90;;;;;;4975567;28;20236;-91
2020/12/19 20:55:00;;;;;;;11.77;4.93;;;9.90;99.90;;;;;;4975297;28;20651;-91
2020/12/19 20:57:26;;;;;;;10.90;5.90;;;9.80;99.90;;;;;;4974757;28;20229;-89
2020/12/19 20:59:57;;;;;;;11.00;5.17;;;9.80;99.90;;;;;;4975293;28;20193;-90
2020/12/19 21:02:25;;;;;;;9.60;5.37;;;9.80;99.90;;;;;;4974794;28;20216;-89
2020/12/19 21:04:52;;;;;;;11.23;5.23;;;9.80;99.90;;;;;;4974599;28;20197;-91
2020/12/19 21:10:02;;;;;;;12.37;5.87;;;9.80;99.90;;;;;;5075536;23;20248;-92
2020/12/19 21:15:21;;;;;;;10.87;5.70;;;9.80;99.90;;;;;;5008552;23;20248;-87
2020/12/19 21:23:38;;;;;;;8.37;4.87;;;9.80;99.90;;;;;;5096604;23;20253;-89
2020/12/19 21:26:04;;;;;;;9.27;4.90;;;9.70;99.90;;;;;;4976143;28;20228;-89
2020/12/19 21:28:30;;;;;;;10.67;5.30;;;9.80;99.90;;;;;;4975087;28;20200;-89
2020/12/19 21:30:57;;;;;;;8.07;5.00;;;9.80;99.90;;;;;;4975493;28;20678;-88
2020/12/19 21:33:25;;;;;;;8.40;5.40;;;9.90;99.90;;;;;;4983330;28;20205;-89
2020/12/19 21:35:51;;;;;;;9.43;4.97;;;9.80;99.90;;;;;;4976433;28;20201;-89
2020/12/19 21:38:18;;;;;;;10.23;4.83;;;9.90;99.90;;;;;;4977134;28;20609;-89
2020/12/19 21:40:44;;;;;;;8.07;4.80;;;9.90;99.90;;;;;;4981827;28;20235;-89
2020/12/19 21:46:18;;;;;;;15.97;5.80;;;9.90;99.90;;;;;;4956033;28;20279;-88
2020/12/19 21:48:46;;;;;;;9.70;5.50;;;9.80;99.90;;;;;;4977733;28;20208;-90
2020/12/19 21:51:13;;;;;;;12.77;5.87;;;9.80;99.90;;;;;;4978339;28;20256;-91
2020/12/19 21:53:40;;;;;;;8.97;5.57;;;9.90;99.90;;;;;;4978934;28;20213;-89
2020/12/19 21:56:06;;;;;;;13.83;6.17;;;9.80;99.90;;;;;;4977954;28;20240;-88
2020/12/19 21:58:32;;;;;;;12.70;6.17;;;9.80;99.90;;;;;;4977987;28;20306;-90
2020/12/19 22:00:59;;;;;;;13.33;6.53;;;9.80;99.90;;;;;;4978088;28;20280;-90
2020/12/19 22:03:25;;;;;;;15.87;7.73;;;9.80;99.90;;;;;;4978381;28;20212;-89
2020/12/19 22:05:52;;;;;;;14.10;7.50;;;9.80;99.90;;;;;;4978409;28;20267;-90
2020/12/19 22:08:19;;;;;;;11.57;6.20;;;9.80;99.90;;;;;;4978092;28;20218;-89
2020/12/19 22:10:45;;;;;;;12.45;6.95;;;9.80;99.90;;;;;;4977197;28;20946;-90
2020/12/19 22:16:16;;;;;;;7.30;5.83;;;9.90;99.90;;;;;;4966874;28;20703;-90
2020/12/19 22:18:42;;;;;;;10.43;5.70;;;9.80;99.90;;;;;;4977327;28;20212;-91
2020/12/19 22:21:12;;;;;;;11.50;4.93;;;9.90;99.90;;;;;;4977825;28;20255;-91
2020/12/19 22:23:38;;;;;;;6.87;5.07;;;9.90;99.90;;;;;;4977223;28;20237;-93
2020/12/19 22:26:06;;;;;;;13.10;6.17;;;9.90;99.90;;;;;;4977478;28;20697;-89
2020/12/19 22:28:32;;;;;;;14.70;6.53;;;10.00;99.90;;;;;;4977566;28;20328;-91
2020/12/19 22:30:58;;;;;;;14.03;6.33;;;10.10;99.90;;;;;;4977478;28;20233;-92
2020/12/19 22:33:25;;;;;;;11.77;6.40;;;10.10;99.90;;;;;;4976875;28;20217;-93
2020/12/19 22:35:51;;;;;;;17.50;7.53;;;10.00;99.90;;;;;;4978623;28;20197;-90
2020/12/19 22:38:18;;;;;;;18.60;8.33;;;10.00;99.90;;;;;;4977334;28;20205;-92
2020/12/19 22:40:45;;;;;;;18.53;9.77;;;10.10;99.90;;;;;;4977267;28;20229;-93
2020/12/19 22:43:11;;;;;;;26.03;11.90;;;10.10;99.90;;;;;;4977436;28;20217;-93
2020/12/19 22:45:38;;;;;;;24.97;12.93;;;10.20;99.90;;;;;;4977711;28;20206;-92
2020/12/19 22:48:04;;;;;;;29.60;14.43;;;10.30;99.90;;;;;;4959446;28;20228;-92
2020/12/19 22:50:30;;;;;;;31.40;14.27;;;10.40;99.90;;;;;;4976455;28;20216;-92
2020/12/19 22:52:57;;;;;;;27.13;13.80;;;10.40;99.90;;;;;;4977194;28;20205;-92
2020/12/19 22:55:24;;;;;;;25.07;12.90;;;10.50;99.90;;;;;;4978023;28;20213;-92
2020/12/19 22:57:50;;;;;;;25.67;12.27;;;10.50;99.90;;;;;;4959702;28;20225;-92
2020/12/19 23:00:24;;;;;;;28.73;11.47;;;10.40;99.90;;;;;;4977380;28;20241;-91
2020/12/19 23:02:50;;;;;;;23.40;10.77;;;10.40;99.90;;;;;;4976899;28;20358;-92
2020/12/19 23:05:17;;;;;;;21.50;9.07;;;10.40;99.90;;;;;;4976763;28;20235;-90
2020/12/19 23:07:44;;;;;;;21.33;8.97;;;10.40;99.90;;;;;;4976601;28;20716;-93
2020/12/19 23:10:11;;;;;;;17.30;8.40;;;10.40;99.90;;;;;;4976636;28;20190;-92
2020/12/19 23:12:38;;;;;;;19.30;8.27;;;10.50;99.90;;;;;;4976714;28;20324;-93
2020/12/19 23:15:05;;;;;;;16.20;7.77;;;10.60;99.90;;;;;;4976707;28;20209;-93
2020/12/19 23:17:31;;;;;;;21.63;9.63;;;10.40;99.90;;;;;;4976367;28;20607;-90
2020/12/19 23:19:57;;;;;;;19.35;8.15;;;10.40;99.90;;;;;;4976453;28;20239;-89
2020/12/19 23:22:24;;;;;;;18.20;8.73;;;10.40;99.90;;;;;;4976693;28;20315;-91
2020/12/19 23:24:50;;;;;;;24.80;9.40;;;10.40;99.90;;;;;;4976582;28;20201;-92
2020/12/19 23:27:17;;;;;;;18.70;7.53;;;10.40;99.90;;;;;;4976758;28;20255;-93
2020/12/19 23:29:44;;;;;;;15.43;7.00;;;10.40;99.90;;;;;;4977083;28;20546;-92
2020/12/19 23:32:10;;;;;;;13.70;7.20;;;10.40;99.90;;;;;;4977152;28;20213;-93
2020/12/19 23:34:36;;;;;;;12.90;6.40;;;10.40;99.90;;;;;;4976285;28;20612;-90
2020/12/19 23:37:03;;;;;;;13.53;5.87;;;10.50;99.90;;;;;;4976231;28;20225;-91
2020/12/19 23:39:29;;;;;;;15.40;5.93;;;10.50;99.90;;;;;;4959178;28;20201;-92
2020/12/19 23:41:56;;;;;;;16.87;5.83;;;10.50;99.90;;;;;;4976747;28;20233;-92
2020/12/19 23:44:22;;;;;;;8.40;4.73;;;10.50;99.90;;;;;;4976323;28;20642;-91
2020/12/19 23:46:53;;;;;;;9.27;4.70;;;10.50;99.90;;;;;;4976353;28;20225;-90
2020/12/19 23:49:21;;;;;;;11.40;4.17;;;10.50;99.90;;;;;;4975693;28;20194;-88
2020/12/19 23:51:48;;;;;;;9.40;4.30;;;10.70;99.90;;;;;;4958769;28;20670;-91
2020/12/19 23:54:14;;;;;;;9.47;4.57;;;10.60;99.90;;;;;;4975564;28;20193;-91
2020/12/19 23:56:40;;;;;;;14.13;4.73;;;10.60;99.90;;;;;;4976460;28;20222;-91
2020/12/19 23:59:08;;;;;;;9.87;4.07;;;10.50;99.90;;;;;;4968739;28;20216;-90
